Time;durP1;ratioP1;P1;durP2;ratioP2;P2;SDS_P1;SDS_P2;PMS_P1;PMS_P2;Temp;Humidity;BMP_temperature;BMP_pressure;BME280_temperature;BME280_humidity;BME280_pressure;Samples;Min_cycle;Max_cycle;Signal;HPM_P1;HPM_P2
2022/06/15 00:00:03;;;;;;;;;;;;;;;19.63;37.72;100831.69;5358797;32;34412;-69
2022/06/15 00:03:05;;;;;;;;;;;;;;;19.44;38.89;100836.53;5339987;32;34456;-66
2022/06/15 00:06:08;;;;;;;;;;;;;;;19.97;37.90;100840.00;5358235;32;36032;-61
2022/06/15 00:09:10;;;;;;;;;;;;;;;20.35;37.75;100834.56;5342786;32;35435;-60
2022/06/15 00:12:12;;;;;;;;;;;;;;;20.43;37.92;100845.53;5356157;32;35683;-61
2022/06/15 00:15:14;;;;;;;;;;;;;;;20.61;37.45;100842.50;5346721;32;34330;-61
2022/06/15 00:18:16;;;;;;;;;;;;;;;20.54;37.47;100845.62;5342367;32;34175;-61
2022/06/15 00:21:18;;;;;;;;;;;;;;;19.93;38.29;100842.00;5357462;32;34297;-68
2022/06/15 00:24:20;;;;;;;;;;;;;;;18.94;40.86;100851.50;5340425;32;34310;-69
2022/06/15 00:27:22;;;;;;;;;;;;;;;18.13;43.12;100865.56;5359626;32;34324;-68
2022/06/15 00:30:24;;;;;;;;;;;;;;;18.15;42.64;100846.84;5342029;32;34355;-67
2022/06/15 00:33:27;;;;;;;;;;;;;;;18.73;41.90;100869.72;5355867;32;35356;-61
2022/06/15 00:36:29;;;;;;;;;;;;;;;19.35;40.26;100859.38;5350813;32;44550;-67
2022/06/15 00:39:32;;;;;;;;;;;;;;;18.39;42.31;100874.56;5328125;32;35551;-69
2022/06/15 00:42:34;;;;;;;;;;;;;;;19.05;40.99;100872.09;5353022;32;34433;-66
2022/06/15 00:45:36;;;;;;;;;;;;;;;19.25;40.09;100870.75;5343427;32;35484;-66
2022/06/15 00:48:38;;;;;;;;;;;;;;;18.37;42.17;100871.16;5359761;32;34374;-67
2022/06/15 00:51:40;;;;;;;;;;;;;;;18.75;42.03;100867.84;5343204;32;34397;-67
2022/06/15 00:54:43;;;;;;;;;;;;;;;19.80;39.37;100861.66;5351381;32;35509;-67
2022/06/15 00:57:45;;;;;;;;;;;;;;;19.47;39.67;100847.88;5351405;32;34219;-61
2022/06/15 01:00:51;;;;;;;;;;;;;;;18.71;41.07;100831.72;5342713;32;35533;-64
2022/06/15 01:03:53;;;;;;;;;;;;;;;18.80;41.51;100847.06;5360462;32;36604;-62
2022/06/15 01:07:04;;;;;;;;;;;;;;;19.20;40.45;100844.44;5345696;32;34309;-61
2022/06/15 01:10:07;;;;;;;;;;;;;;;18.29;42.55;100852.16;5357943;32;44359;-61
2022/06/15 01:13:21;;;;;;;;;;;;;;;18.35;42.44;100854.44;5344103;32;34278;-61
2022/06/15 01:16:41;;;;;;;;;;;;;;;18.42;42.10;100852.22;5344284;32;35516;-61
2022/06/15 01:19:46;;;;;;;;;;;;;;;18.67;41.46;100856.81;5360232;32;36544;-66
2022/06/15 01:22:54;;;;;;;;;;;;;;;18.79;41.40;100853.34;5343304;32;34298;-60
2022/06/15 01:26:15;;;;;;;;;;;;;;;19.42;40.21;100855.31;5360727;32;34410;-65
2022/06/15 01:29:20;;;;;;;;;;;;;;;19.38;40.24;100858.28;5345235;32;34694;-60
2022/06/15 01:32:28;;;;;;;;;;;;;;;18.19;42.96;100864.31;5344837;32;35500;-65
2022/06/15 01:35:30;;;;;;;;;;;;;;;19.03;40.80;100869.53;5359794;32;44375;-66
2022/06/15 01:38:45;;;;;;;;;;;;;;;18.13;42.91;100862.06;5337021;32;35551;-66
2022/06/15 01:41:47;;;;;;;;;;;;;;;17.79;43.80;100858.84;5344051;32;35737;-62
2022/06/15 01:44:53;;;;;;;;;;;;;;;17.77;43.91;100859.88;5342493;32;34403;-63
2022/06/15 01:47:56;;;;;;;;;;;;;;;18.08;42.72;100864.13;5348249;32;35497;-61
2022/06/15 01:50:59;;;;;;;;;;;;;;;17.91;43.13;100856.38;5355262;32;45250;-61
2022/06/15 01:54:03;;;;;;;;;;;;;;;18.58;41.51;100865.38;5341747;32;35502;-60
2022/06/15 01:57:05;;;;;;;;;;;;;;;19.15;40.73;100851.88;5359911;32;34581;-62
2022/06/15 02:00:08;;;;;;;;;;;;;;;18.64;41.62;100862.31;5342315;32;35583;-68
2022/06/15 02:03:31;;;;;;;;;;;;;;;18.47;42.02;100862.56;5358588;32;34383;-60
2022/06/15 02:06:52;;;;;;;;;;;;;;;17.71;44.25;100863.78;5348970;32;45245;-67
2022/06/15 02:09:57;;;;;;;;;;;;;;;18.77;42.06;100862.41;5340244;32;35744;-60
2022/06/15 02:13:03;;;;;;;;;;;;;;;18.55;42.17;100868.25;5359929;32;44476;-66
2022/06/15 02:16:08;;;;;;;;;;;;;;;18.75;41.98;100870.50;5344606;32;34381;-65
2022/06/15 02:19:11;;;;;;;;;;;;;;;19.12;41.21;100866.22;5357698;32;34381;-66
2022/06/15 02:22:14;;;;;;;;;;;;;;;19.36;40.58;100873.53;5342991;32;36033;-67
2022/06/15 02:25:16;;;;;;;;;;;;;;;18.60;41.96;100874.97;5341410;32;35588;-60
2022/06/15 02:28:19;;;;;;;;;;;;;;;18.03;43.35;100871.53;5359029;32;34702;-62
2022/06/15 02:31:21;;;;;;;;;;;;;;;19.12;41.36;100873.38;5342593;32;35441;-63
2022/06/15 02:34:23;;;;;;;;;;;;;;;18.92;41.27;100882.69;5359489;32;34325;-61
2022/06/15 02:37:25;;;;;;;;;;;;;;;18.67;42.60;100884.28;5343511;32;35610;-67
2022/06/15 02:40:27;;;;;;;;;;;;;;;17.96;44.57;100880.84;5333331;32;43852;-67
2022/06/15 02:43:29;;;;;;;;;;;;;;;17.86;45.26;100880.59;5340288;32;34755;-67
2022/06/15 02:46:32;;;;;;;;;;;;;;;18.10;44.64;100878.22;5343084;32;34372;-67
2022/06/15 02:49:34;;;;;;;;;;;;;;;18.58;43.57;100884.03;5358090;32;35592;-66
2022/06/15 02:52:40;;;;;;;;;;;;;;;18.50;43.79;100876.53;5343429;32;34206;-60
2022/06/15 02:55:42;;;;;;;;;;;;;;;17.82;45.71;100874.59;5357548;32;35560;-60
2022/06/15 02:58:46;;;;;;;;;;;;;;;17.55;46.62;100877.09;5341695;32;34312;-60
2022/06/15 03:01:48;;;;;;;;;;;;;;;17.73;46.40;100875.16;5358139;32;34262;-62
2022/06/15 03:04:50;;;;;;;;;;;;;;;17.38;46.97;100885.22;5346550;32;34354;-66
2022/06/15 03:07:52;;;;;;;;;;;;;;;16.97;48.16;100892.97;5344338;32;35668;-62
2022/06/15 03:10:54;;;;;;;;;;;;;;;16.63;49.16;100896.66;5360366;32;34475;-62
2022/06/15 03:13:56;;;;;;;;;;;;;;;16.68;49.34;100895.47;5343418;32;34660;-60
2022/06/15 03:16:58;;;;;;;;;;;;;;;16.49;49.62;100886.81;5360326;32;45230;-62
2022/06/15 03:20:00;;;;;;;;;;;;;;;16.82;49.28;100897.38;5342662;32;34649;-66
2022/06/15 03:23:02;;;;;;;;;;;;;;;16.95;49.26;100909.00;5355066;32;34379;-66
2022/06/15 03:26:04;;;;;;;;;;;;;;;16.59;49.80;100900.41;5350078;32;35560;-60
2022/06/15 03:29:06;;;;;;;;;;;;;;;17.12;48.17;100904.50;5341160;32;35681;-60
2022/06/15 03:32:12;;;;;;;;;;;;;;;16.55;49.32;100909.47;5359965;32;35636;-67
2022/06/15 03:35:14;;;;;;;;;;;;;;;17.74;45.72;100898.13;5342785;32;35616;-69
2022/06/15 03:38:16;;;;;;;;;;;;;;;16.43;48.73;100900.44;5358523;32;34362;-68
2022/06/15 03:41:18;;;;;;;;;;;;;;;16.53;48.48;100909.56;5317730;32;34761;-60
2022/06/15 03:44:20;;;;;;;;;;;;;;;17.54;45.86;100899.31;5348851;32;36673;-60
2022/06/15 03:47:22;;;;;;;;;;;;;;;17.10;46.92;100904.59;5352104;32;33712;-62
2022/06/15 03:50:25;;;;;;;;;;;;;;;18.23;44.10;100903.09;5344756;32;34384;-62
2022/06/15 03:53:27;;;;;;;;;;;;;;;18.55;43.13;100900.22;5356331;32;37128;-64
2022/06/15 03:56:42;;;;;;;;;;;;;;;18.82;42.57;100903.78;5342437;32;44884;-65
2022/06/15 03:59:44;;;;;;;;;;;;;;;17.38;45.63;100902.97;5356678;32;33865;-68
2022/06/15 04:02:45;;;;;;;;;;;;;;;17.08;46.83;100897.66;5343027;32;35661;-67
2022/06/15 04:05:52;;;;;;;;;;;;;;;18.00;45.18;100906.31;5345756;32;34217;-63
2022/06/15 04:08:54;;;;;;;;;;;;;;;17.27;48.89;100916.91;5360981;32;35042;-66
2022/06/15 04:11:59;;;;;;;;;;;;;;;17.72;47.70;100918.66;5347349;32;34266;-66
2022/06/15 04:15:01;;;;;;;;;;;;;;;18.16;47.00;100908.88;5361425;32;46079;-61
2022/06/15 04:18:03;;;;;;;;;;;;;;;18.23;46.74;100911.09;5345230;32;34151;-67
2022/06/15 04:21:05;;;;;;;;;;;;;;;18.28;47.02;100913.44;5361701;32;35357;-61
2022/06/15 04:24:11;;;;;;;;;;;;;;;18.63;46.15;100913.88;5345027;32;34348;-61
2022/06/15 04:27:14;;;;;;;;;;;;;;;19.28;44.32;100907.87;5347893;32;34766;-61
2022/06/15 04:30:16;;;;;;;;;;;;;;;19.07;44.90;100916.34;5362350;32;34231;-67
2022/06/15 04:33:18;;;;;;;;;;;;;;;20.38;42.44;100917.09;5345265;32;34217;-60
2022/06/15 04:36:20;;;;;;;;;;;;;;;20.22;42.63;100892.44;5362476;32;34157;-66
2022/06/15 04:39:22;;;;;;;;;;;;;;;21.65;39.14;100907.69;5326234;32;34544;-63
2022/06/15 04:42:30;;;;;;;;;;;;;;;20.92;40.60;100913.19;5346119;32;45038;-61
2022/06/15 04:45:32;;;;;;;;;;;;;;;22.53;37.41;100907.84;5350339;32;34939;-67
2022/06/15 04:48:34;;;;;;;;;;;;;;;21.22;39.55;100918.94;5344089;32;37130;-61
2022/06/15 04:51:41;;;;;;;;;;;;;;;21.87;39.10;100907.72;5362632;32;35487;-67
2022/06/15 04:54:42;;;;;;;;;;;;;;;22.86;37.18;100908.75;5342867;32;35998;-61
2022/06/15 04:57:45;;;;;;;;;;;;;;;21.43;39.68;100915.63;5361666;32;34495;-66
2022/06/15 05:00:47;;;;;;;;;;;;;;;23.13;36.17;100901.16;5345215;32;35695;-67
2022/06/15 05:03:49;;;;;;;;;;;;;;;22.72;36.85;100907.19;5350463;32;35607;-67
2022/06/15 05:06:51;;;;;;;;;;;;;;;22.61;36.85;100907.25;5354686;32;34581;-67
2022/06/15 05:09:53;;;;;;;;;;;;;;;23.07;35.79;100909.69;5343787;32;35928;-67
2022/06/15 05:12:55;;;;;;;;;;;;;;;23.49;34.64;100909.72;5352948;32;34516;-67
2022/06/15 05:15:57;;;;;;;;;;;;;;;22.93;35.64;100916.22;5341832;32;44528;-68
2022/06/15 05:18:59;;;;;;;;;;;;;;;22.89;36.05;100922.78;5356545;32;35417;-69
2022/06/15 05:22:01;;;;;;;;;;;;;;;25.45;31.04;100921.91;5343829;32;34870;-63
2022/06/15 05:25:07;;;;;;;;;;;;;;;25.08;30.93;100901.94;5353105;32;34403;-61
2022/06/15 05:28:09;;;;;;;;;;;;;;;23.80;33.43;100923.25;5353360;32;34478;-61
2022/06/15 05:31:18;;;;;;;;;;;;;;;24.82;31.76;100917.72;5344254;32;34467;-66
2022/06/15 05:34:20;;;;;;;;;;;;;;;25.23;31.20;100925.72;5358651;32;34375;-61
2022/06/15 05:37:22;;;;;;;;;;;;;;;24.38;32.41;100919.03;5344082;32;35824;-61
2022/06/15 05:40:24;;;;;;;;;;;;;;;22.95;35.03;100918.75;5335721;32;35919;-61
2022/06/15 05:43:26;;;;;;;;;;;;;;;23.73;34.12;100912.19;5339300;32;34531;-68
2022/06/15 05:46:30;;;;;;;;;;;;;;;25.95;30.49;100910.91;5346945;32;44563;-70
2022/06/15 05:49:32;;;;;;;;;;;;;;;25.77;30.73;100914.38;5351912;32;35317;-67
2022/06/15 05:52:34;;;;;;;;;;;;;;;25.95;30.26;100916.28;5338493;32;34409;-74
2022/06/15 05:55:36;;;;;;;;;;;;;;;25.85;30.41;100922.56;5353528;32;34449;-67
2022/06/15 05:58:38;;;;;;;;;;;;;;;25.96;29.97;100912.63;5332913;32;38463;-66
2022/06/15 06:01:40;;;;;;;;;;;;;;;26.92;28.00;100912.16;5351723;32;35962;-65
2022/06/15 06:04:42;;;;;;;;;;;;;;;26.21;28.75;100914.63;5341349;32;34458;-74
2022/06/15 06:07:52;;;;;;;;;;;;;;;24.95;30.71;100922.00;5337903;32;34113;-66
2022/06/15 06:10:54;;;;;;;;;;;;;;;26.66;28.29;100917.44;5351718;32;35974;-75
2022/06/15 06:13:56;;;;;;;;;;;;;;;28.85;24.61;100909.19;5337862;32;35719;-66
2022/06/15 06:16:58;;;;;;;;;;;;;;;26.98;26.94;100919.63;5355725;32;44569;-66
2022/06/15 06:20:00;;;;;;;;;;;;;;;27.15;27.13;100919.81;5339149;32;34290;-67
2022/06/15 06:23:02;;;;;;;;;;;;;;;27.97;24.69;100924.84;5347818;32;35657;-75
2022/06/15 06:26:04;;;;;;;;;;;;;;;25.29;28.91;100935.91;5341108;32;37546;-74
2022/06/15 06:29:06;;;;;;;;;;;;;;;26.08;26.16;100928.47;5339103;32;34252;-66
2022/06/15 06:32:11;;;;;;;;;;;;;;;27.14;25.36;100929.75;5351689;32;34427;-66
2022/06/15 06:35:12;;;;;;;;;;;;;;;26.27;26.72;100929.34;5340987;32;34268;-68
2022/06/15 06:38:15;;;;;;;;;;;;;;;28.46;23.33;100922.41;5355737;32;34626;-71
2022/06/15 06:41:20;;;;;;;;;;;;;;;27.77;24.28;100920.69;5324202;32;34513;-66
2022/06/15 06:44:22;;;;;;;;;;;;;;;26.59;26.20;100931.63;5347429;32;34827;-66
2022/06/15 06:47:24;;;;;;;;;;;;;;;26.93;25.56;100913.84;5346467;32;35211;-78
2022/06/15 06:50:27;;;;;;;;;;;;;;;26.16;27.07;100931.25;5349852;32;35596;-78
2022/06/15 06:53:29;;;;;;;;;;;;;;;27.52;25.08;100931.25;5352233;32;44501;-65
2022/06/15 06:56:31;;;;;;;;;;;;;;;27.05;25.62;100929.78;5342206;32;34621;-62
2022/06/15 06:59:33;;;;;;;;;;;;;;;28.51;24.00;100925.47;5358980;32;34256;-68
2022/06/15 07:02:35;;;;;;;;;;;;;;;28.35;24.02;100922.72;5345452;32;34364;-64
2022/06/15 07:05:37;;;;;;;;;;;;;;;29.07;23.01;100920.41;5358515;32;36755;-64
2022/06/15 07:08:39;;;;;;;;;;;;;;;30.46;21.36;100918.37;5350841;32;35461;-67
2022/06/15 07:11:42;;;;;;;;;;;;;;;31.09;20.42;100917.34;5342772;32;34166;-62
2022/06/15 07:14:44;;;;;;;;;;;;;;;29.37;21.37;100933.31;5354850;32;34243;-61
2022/06/15 07:17:46;;;;;;;;;;;;;;;29.14;21.98;100929.56;5342624;32;34445;-61
2022/06/15 07:20:48;;;;;;;;;;;;;;;30.84;19.85;100923.97;5357859;32;35024;-70
2022/06/15 07:23:51;;;;;;;;;;;;;;;28.91;22.27;100929.31;5343443;32;35444;-68
2022/06/15 07:26:53;;;;;;;;;;;;;;;31.61;19.06;100922.03;5322593;32;34401;-64
2022/06/15 07:29:55;;;;;;;;;;;;;;;29.85;20.91;100923.47;5351450;32;34125;-64
2022/06/15 07:32:58;;;;;;;;;;;;;;;29.73;21.26;100924.84;5343511;32;45604;-66
2022/06/15 07:36:00;;;;;;;;;;;;;;;31.83;19.15;100925.78;5356538;32;36083;-66
2022/06/15 07:39:02;;;;;;;;;;;;;;;29.78;20.93;100922.47;5324218;32;186745;-64
2022/06/15 07:42:05;;;;;;;;;;;;;;;31.20;19.58;100924.25;5341043;32;35544;-75
2022/06/15 07:45:08;;;;;;;;;;;;;;;30.17;20.59;100919.84;5337850;32;34928;-63
2022/06/15 07:51:35;;;;;;;;;;;;;;;30.03;20.84;100915.13;5354888;32;45008;-64
2022/06/15 07:54:39;;;;;;;;;;;;;;;30.85;20.25;100909.38;5344004;32;34273;-64
2022/06/15 07:57:41;;;;;;;;;;;;;;;29.90;21.34;100914.81;5353457;32;34400;-67
2022/06/15 08:00:47;;;;;;;;;;;;;;;29.90;21.27;100909.41;5337512;32;34179;-67
2022/06/15 08:03:50;;;;;;;;;;;;;;;31.65;19.39;100895.38;5338011;32;35397;-65
2022/06/15 08:06:52;;;;;;;;;;;;;;;34.08;16.69;100901.03;5345900;32;33834;-70
2022/06/15 08:09:54;;;;;;;;;;;;;;;33.42;17.01;100901.37;5343148;32;34373;-64
2022/06/15 08:12:56;;;;;;;;;;;;;;;32.39;18.19;100903.56;5338583;32;34222;-65
2022/06/15 08:15:59;;;;;;;;;;;;;;;33.13;17.33;100902.34;5338891;32;45346;-62
2022/06/15 08:19:01;;;;;;;;;;;;;;;33.76;16.74;100897.03;5357398;32;35823;-64
2022/06/15 08:22:04;;;;;;;;;;;;;;;32.80;17.70;100901.13;5330642;32;34401;-63
2022/06/15 08:25:07;;;;;;;;;;;;;;;32.54;17.90;100897.09;5350376;32;35972;-71
2022/06/15 08:28:09;;;;;;;;;;;;;;;31.60;19.03;100904.06;5346972;32;34030;-65
2022/06/15 08:31:11;;;;;;;;;;;;;;;31.02;19.82;100902.81;5343197;32;34376;-66
2022/06/15 08:34:13;;;;;;;;;;;;;;;31.34;19.11;100901.75;5354314;32;35464;-67
2022/06/15 08:37:16;;;;;;;;;;;;;;;30.89;18.90;100905.28;5343687;32;34536;-66
2022/06/15 08:40:18;;;;;;;;;;;;;;;33.90;16.02;100887.03;5337035;32;35379;-65
2022/06/15 08:43:23;;;;;;;;;;;;;;;33.51;16.14;100901.25;5335717;32;34459;-67
2022/06/15 08:46:39;;;;;;;;;;;;;;;35.34;14.50;100890.50;5342666;32;35028;-66
2022/06/15 08:50:02;;;;;;;;;;;;;;;35.45;14.63;100880.87;5352178;32;34511;-66
2022/06/15 08:53:13;;;;;;;;;;;;;;;32.51;17.48;100891.16;5342798;32;44597;-68
2022/06/15 08:56:51;;;;;;;;;;;;;;;32.29;17.89;100882.09;5358858;32;34231;-69
2022/06/15 09:00:16;;;;;;;;;;;;;;;32.94;16.79;100885.81;5275916;32;34370;-69
2022/06/15 09:03:42;;;;;;;;;;;;;;;30.79;18.41;100891.97;5344529;32;34393;-69
2022/06/15 09:06:51;;;;;;;;;;;;;;;30.37;18.98;100886.91;5357010;32;34353;-67
2022/06/15 09:10:13;;;;;;;;;;;;;;;31.49;18.26;100888.19;5345385;32;35508;-64
2022/06/15 09:13:20;;;;;;;;;;;;;;;32.36;17.41;100877.59;5342157;32;35513;-66
2022/06/15 09:16:48;;;;;;;;;;;;;;;34.01;15.94;100881.06;5348382;32;35589;-67
2022/06/15 09:19:53;;;;;;;;;;;;;;;31.34;18.37;100881.91;5336676;32;35667;-70
2022/06/15 09:23:14;;;;;;;;;;;;;;;34.75;15.19;100874.88;5358209;32;34344;-70
2022/06/15 09:26:40;;;;;;;;;;;;;;;35.19;14.50;100873.50;5340432;32;36020;-68
2022/06/15 09:29:45;;;;;;;;;;;;;;;34.02;15.45;100868.28;5334387;32;34113;-68
2022/06/15 09:32:51;;;;;;;;;;;;;;;32.67;17.02;100871.06;5350142;32;34452;-71
2022/06/15 09:36:00;;;;;;;;;;;;;;;35.39;14.49;100857.94;5346499;32;34333;-65
2022/06/15 09:39:02;;;;;;;;;;;;;;;31.93;17.18;100877.41;5343784;32;44508;-66
2022/06/15 09:42:08;;;;;;;;;;;;;;;30.55;18.79;100879.34;5329278;32;35591;-65
2022/06/15 09:45:13;;;;;;;;;;;;;;;32.02;17.54;100875.47;5345749;32;35518;-73
2022/06/15 09:48:19;;;;;;;;;;;;;;;34.30;15.02;100860.84;5358965;32;34314;-70
2022/06/15 09:51:28;;;;;;;;;;;;;;;31.79;17.47;100870.09;5345207;32;34435;-64
2022/06/15 09:54:30;;;;;;;;;;;;;;;31.87;17.19;100866.44;5359334;32;44535;-65
2022/06/15 09:57:35;;;;;;;;;;;;;;;31.38;17.38;100866.94;5348151;32;35590;-72
2022/06/15 10:00:37;;;;;;;;;;;;;;;31.93;16.68;100866.53;5352626;32;34260;-67
2022/06/15 10:03:43;;;;;;;;;;;;;;;34.52;14.68;100842.47;5352065;32;35437;-65
2022/06/15 10:06:45;;;;;;;;;;;;;;;32.86;16.53;100860.41;5343432;32;34606;-78
2022/06/15 10:09:49;;;;;;;;;;;;;;;31.62;16.90;100849.53;5358136;32;34466;-64
2022/06/15 10:12:57;;;;;;;;;;;;;;;31.60;17.24;100846.16;5345484;32;34119;-64
2022/06/15 10:16:03;;;;;;;;;;;;;;;31.45;17.34;100843.44;5357401;32;45999;-69
2022/06/15 10:19:06;;;;;;;;;;;;;;;31.80;17.31;100850.87;5349018;32;35648;-71
2022/06/15 10:22:11;;;;;;;;;;;;;;;35.14;14.30;100841.31;5345866;32;34463;-64
2022/06/15 10:25:15;;;;;;;;;;;;;;;36.35;12.85;100835.41;5345254;32;35886;-65
2022/06/15 10:28:21;;;;;;;;;;;;;;;33.34;15.11;100835.25;5345406;32;34637;-65
2022/06/15 10:31:33;;;;;;;;;;;;;;;35.30;13.56;100836.50;5353337;32;34663;-64
2022/06/15 10:34:41;;;;;;;;;;;;;;;34.46;14.29;100819.59;5339746;32;43652;-64
2022/06/15 10:37:46;;;;;;;;;;;;;;;34.37;14.43;100819.94;5349732;32;34783;-61
2022/06/15 10:40:50;;;;;;;;;;;;;;;35.73;13.30;100818.56;5333546;32;34655;-66
2022/06/15 10:43:52;;;;;;;;;;;;;;;35.15;13.77;100815.69;5339554;32;34524;-64
2022/06/15 10:47:17;;;;;;;;;;;;;;;34.36;14.48;100810.06;5352590;32;35718;-63
2022/06/15 10:50:26;;;;;;;;;;;;;;;35.05;14.14;100814.44;5335309;32;34738;-64
2022/06/15 10:53:48;;;;;;;;;;;;;;;36.91;13.22;100801.00;5348888;32;34599;-66
2022/06/15 11:04:12;;;;;;;;;;;;;;;36.10;13.54;100798.91;5356918;32;34670;-66
2022/06/15 11:07:16;;;;;;;;;;;;;;;36.55;13.32;100784.16;5351668;32;36045;-64
2022/06/15 11:10:38;;;;;;;;;;;;;;;34.01;15.20;100790.25;5344612;32;34511;-64
2022/06/15 11:13:41;;;;;;;;;;;;;;;37.37;12.55;100779.50;5354570;32;35750;-66
2022/06/15 11:20:06;;;;;;;;;;;;;;;38.30;11.83;100774.84;5350580;32;44497;-67
2022/06/15 11:23:13;;;;;;;;;;;;;;;34.62;14.79;100782.03;5348573;32;34362;-69
2022/06/15 11:29:59;;;;;;;;;;;;;;;34.32;15.26;100771.44;5356995;32;35720;-66
2022/06/15 11:33:18;;;;;;;;;;;;;;;35.46;14.39;100757.66;5339598;32;46074;-66
2022/06/15 11:36:31;;;;;;;;;;;;;;;34.77;15.14;100770.91;5339492;32;34461;-68
2022/06/15 11:39:56;;;;;;;;;;;;;;;35.45;14.34;100760.62;5335656;32;47146;-64
2022/06/15 11:42:59;;;;;;;;;;;;;;;32.80;15.94;100765.87;5331870;32;44923;-66
2022/06/15 11:46:24;;;;;;;;;;;;;;;35.03;14.02;100767.38;5352921;32;34953;-66
2022/06/15 11:49:35;;;;;;;;;;;;;;;35.78;13.50;100758.63;5314872;32;34136;-61
2022/06/15 11:52:40;;;;;;;;;;;;;;;34.69;14.20;100766.50;5340779;32;34561;-62
2022/06/15 11:55:45;;;;;;;;;;;;;;;33.21;15.77;100765.19;5354779;32;35510;-59
2022/06/15 11:58:51;;;;;;;;;;;;;;;31.53;17.14;100761.84;5342979;32;37268;-67
2022/06/15 12:02:03;;;;;;;;;;;;;;;34.06;15.14;100755.00;5352102;32;35749;-65
2022/06/15 12:05:16;;;;;;;;;;;;;;;33.89;15.01;100757.22;5335313;32;44802;-62
2022/06/15 12:08:22;;;;;;;;;;;;;;;30.96;18.14;100759.69;5341413;32;34492;-66
2022/06/15 12:15:03;;;;;;;;;;;;;;;30.78;18.44;100757.31;5341748;32;34396;-67
2022/06/15 12:18:14;;;;;;;;;;;;;;;30.04;19.32;100748.78;5351497;32;34364;-68
2022/06/15 12:21:25;;;;;;;;;;;;;;;29.78;19.61;100753.66;5341167;32;35883;-67
2022/06/15 12:24:29;;;;;;;;;;;;;;;30.02;19.47;100761.69;5342635;32;45783;-69
2022/06/15 12:27:34;;;;;;;;;;;;;;;29.62;20.13;100749.97;5336753;32;34255;-70
2022/06/15 12:30:43;;;;;;;;;;;;;;;30.66;18.77;100745.19;5341449;32;36033;-65
2022/06/15 12:33:45;;;;;;;;;;;;;;;29.68;19.73;100743.88;5358595;32;36897;-68
2022/06/15 12:37:02;;;;;;;;;;;;;;;29.45;20.20;100742.06;5338625;32;35178;-66
2022/06/15 12:40:35;;;;;;;;;;;;;;;31.02;18.86;100737.25;5321248;32;34635;-67
2022/06/15 12:43:42;;;;;;;;;;;;;;;28.75;21.08;100737.25;5353350;32;35604;-66
2022/06/15 12:46:44;;;;;;;;;;;;;;;28.33;21.75;100747.16;5347178;32;34201;-68
2022/06/15 12:50:14;;;;;;;;;;;;;;;28.89;21.37;100720.31;5354655;32;45018;-70
2022/06/15 12:53:22;;;;;;;;;;;;;;;29.35;20.92;100723.31;5351506;32;34632;-69
2022/06/15 12:56:29;;;;;;;;;;;;;;;30.31;19.84;100725.78;5345218;32;34168;-67
2022/06/15 12:59:42;;;;;;;;;;;;;;;28.58;21.46;100729.13;5355181;32;44589;-66
2022/06/15 13:03:01;;;;;;;;;;;;;;;30.02;20.61;100722.91;5345284;32;34307;-64
2022/06/15 13:06:21;;;;;;;;;;;;;;;30.84;19.27;100717.75;5354219;32;44619;-66
2022/06/15 13:09:26;;;;;;;;;;;;;;;30.02;20.13;100733.75;5356536;32;34684;-71
2022/06/15 13:12:41;;;;;;;;;;;;;;;29.06;21.36;100722.03;5340245;32;45713;-69
2022/06/15 13:16:15;;;;;;;;;;;;;;;28.62;22.18;100720.69;5359546;32;34504;-63
2022/06/15 13:19:28;;;;;;;;;;;;;;;28.79;21.88;100723.22;5311649;32;34261;-68
2022/06/15 13:22:32;;;;;;;;;;;;;;;28.06;22.67;100728.50;5343027;32;44488;-67
2022/06/15 13:25:34;;;;;;;;;;;;;;;28.52;22.55;100724.38;5341526;32;35743;-68
2022/06/15 13:28:37;;;;;;;;;;;;;;;28.81;22.29;100718.47;5339690;32;34663;-68
2022/06/15 13:31:45;;;;;;;;;;;;;;;29.97;20.68;100718.00;5357016;32;36070;-68
2022/06/15 13:34:47;;;;;;;;;;;;;;;29.53;20.80;100715.00;5341527;32;36558;-66
2022/06/15 13:37:56;;;;;;;;;;;;;;;28.98;21.47;100702.25;5355418;32;34699;-68
2022/06/15 13:40:58;;;;;;;;;;;;;;;29.03;21.59;100708.84;5327064;32;46514;-66
2022/06/15 13:44:01;;;;;;;;;;;;;;;30.15;20.28;100704.22;5346456;32;34601;-67
2022/06/15 13:47:03;;;;;;;;;;;;;;;29.91;20.59;100714.13;5352251;32;34494;-72
2022/06/15 13:50:06;;;;;;;;;;;;;;;30.19;20.12;100719.06;5341886;32;34284;-72
2022/06/15 13:53:16;;;;;;;;;;;;;;;29.95;20.46;100711.94;5358066;32;34429;-72
2022/06/15 13:56:21;;;;;;;;;;;;;;;29.07;21.41;100702.06;5336179;32;35841;-70
2022/06/15 13:59:31;;;;;;;;;;;;;;;28.96;21.89;100694.31;5347455;32;34160;-69
2022/06/15 14:02:34;;;;;;;;;;;;;;;29.30;21.28;100690.50;5353124;32;46110;-68
2022/06/15 14:05:56;;;;;;;;;;;;;;;28.62;22.44;100697.19;5342490;32;37169;-73
2022/06/15 14:09:12;;;;;;;;;;;;;;;29.28;21.55;100695.25;5356358;32;44481;-69
2022/06/15 14:12:24;;;;;;;;;;;;;;;29.31;21.37;100697.63;5344197;32;34252;-68
2022/06/15 14:15:44;;;;;;;;;;;;;;;29.22;21.50;100685.13;5341639;32;34961;-68
2022/06/15 14:18:49;;;;;;;;;;;;;;;28.49;22.42;100691.44;5350862;32;35603;-70
2022/06/15 14:22:24;;;;;;;;;;;;;;;29.64;20.95;100685.66;5343578;32;32428;-73
2022/06/15 14:25:26;;;;;;;;;;;;;;;28.76;22.08;100690.25;5340968;32;35241;-74
2022/06/15 14:28:29;;;;;;;;;;;;;;;29.53;21.11;100680.63;5341093;32;43570;-79
2022/06/15 14:31:32;;;;;;;;;;;;;;;29.20;21.52;100685.28;5339193;32;34614;-77
2022/06/15 14:34:36;;;;;;;;;;;;;;;29.40;21.35;100674.91;5365775;32;34722;-69
2022/06/15 14:37:44;;;;;;;;;;;;;;;30.23;20.30;100671.63;5336330;32;34526;-72
2022/06/15 14:40:46;;;;;;;;;;;;;;;29.89;20.96;100672.00;5333778;32;34887;-71
2022/06/15 14:43:50;;;;;;;;;;;;;;;28.37;22.85;100674.72;5338893;32;34426;-71
2022/06/15 14:46:57;;;;;;;;;;;;;;;29.21;21.67;100670.75;5348611;32;34112;-73
2022/06/15 14:50:00;;;;;;;;;;;;;;;28.56;22.61;100660.84;5352852;32;44265;-71
2022/06/15 14:53:06;;;;;;;;;;;;;;;29.47;21.51;100664.22;5343392;32;34822;-73
2022/06/15 14:56:09;;;;;;;;;;;;;;;28.78;22.41;100663.87;5360615;32;34558;-76
2022/06/15 14:59:12;;;;;;;;;;;;;;;29.41;21.78;100657.63;5344143;32;34476;-71
2022/06/15 15:02:14;;;;;;;;;;;;;;;28.22;23.03;100654.75;5357860;32;36570;-70
2022/06/15 15:05:18;;;;;;;;;;;;;;;29.38;21.65;100644.47;5344751;32;34666;-77
2022/06/15 15:08:25;;;;;;;;;;;;;;;28.58;22.86;100652.56;5344837;32;34849;-76
2022/06/15 15:11:27;;;;;;;;;;;;;;;28.74;22.62;100646.31;5355636;32;44546;-73
2022/06/15 15:14:32;;;;;;;;;;;;;;;29.35;22.22;100650.22;5338083;32;34833;-76
2022/06/15 15:17:47;;;;;;;;;;;;;;;29.55;21.74;100640.66;5357622;32;34885;-70
2022/06/15 15:20:50;;;;;;;;;;;;;;;29.96;21.39;100643.16;5337246;32;34850;-72
2022/06/15 15:23:53;;;;;;;;;;;;;;;29.17;22.19;100646.91;5351027;32;35199;-70
2022/06/15 15:26:58;;;;;;;;;;;;;;;28.81;22.67;100622.97;5351456;32;34266;-71
2022/06/15 15:40:14;;;;;;;;;;;;;;;29.51;21.92;100624.94;5318305;32;35273;-71
2022/06/15 15:43:16;;;;;;;;;;;;;;;28.97;22.30;100622.94;5357526;32;34632;-70
2022/06/15 15:46:18;;;;;;;;;;;;;;;28.95;22.50;100625.00;5343718;32;35637;-72
2022/06/15 15:49:20;;;;;;;;;;;;;;;28.59;22.93;100624.50;5357098;32;34742;-76
2022/06/15 15:52:22;;;;;;;;;;;;;;;28.83;22.40;100623.63;5342909;32;34957;-70
2022/06/15 15:55:24;;;;;;;;;;;;;;;29.75;21.58;100618.56;5357703;32;34719;-72
2022/06/15 15:58:28;;;;;;;;;;;;;;;30.20;20.79;100613.16;5339972;32;36739;-72
2022/06/15 16:01:31;;;;;;;;;;;;;;;29.27;21.59;100615.06;5343388;32;45583;-78
2022/06/15 16:04:38;;;;;;;;;;;;;;;29.64;20.95;100617.97;5361871;32;35086;-77
2022/06/15 16:07:40;;;;;;;;;;;;;;;29.23;21.46;100619.13;5344213;32;35204;-70
2022/06/15 16:10:44;;;;;;;;;;;;;;;29.25;20.22;100617.97;5361257;32;35529;-72
2022/06/15 16:13:45;;;;;;;;;;;;;;;29.93;18.56;100619.13;5318752;32;34732;-71
2022/06/15 16:16:47;;;;;;;;;;;;;;;29.47;19.08;100621.72;5358565;32;34424;-77
2022/06/15 16:19:50;;;;;;;;;;;;;;;28.91;19.84;100620.91;5349090;32;36238;-78
2022/06/15 16:22:52;;;;;;;;;;;;;;;28.85;19.98;100617.06;5344117;32;35393;-76